This is the latest recevied weather packets stored in our database for station/object K8BCO. If no packets are shown the sender has not sent any weather packets the latest 1 day(s).
| Time | Temp. | Humidity | Pressure | Rain* | Wind** | Luminosity | Snow |
|---|---|---|---|---|---|---|---|
| 1778099118 | 5.56° C | 51% | 1011.6 hPa | 0 mm | - | 277 W/m² | - |
| 1778098518 | 5.56° C | 51% | 1011.7 hPa | 0 mm | - | 224 W/m² | - |
| 1778097318 | 6.11° C | 51% | 1011.7 hPa | 0 mm | - | 219 W/m² | - |
| 1778094916 | 5.56° C | 53% | 1011.7 hPa | 0 mm | - | 282 W/m² | - |
| 1778091317 | 5.56° C | 54% | 1011.6 hPa | 0 mm | - | 440 W/m² | - |
| 1778090717 | 5.56° C | 55% | 1011.7 hPa | 0 mm | - | 294 W/m² | - |
| 1778086518 | 5° C | 53% | 1011.8 hPa | 0 mm | - | 321 W/m² | - |
| 1778084719 | 6.11° C | 50% | 1011.7 hPa | 0 mm | - | 394 W/m² | - |
| 1778081117 | 4.44° C | 50% | 1011.7 hPa | 0 mm | - | 207 W/m² | - |
| 1778079918 | 4.44° C | 49% | 1011.5 hPa | 0 mm | - | 247 W/m² | - |
| 1778079318 | 4.44° C | 49% | 1011.4 hPa | 0 mm | - | 249 W/m² | - |
| 1778078719 | 4.44° C | 49% | 1011.3 hPa | 0 mm | - | 292 W/m² | - |
| 1778076920 | 3.89° C | 52% | 1011.5 hPa | 0 mm | - | 201 W/m² | - |
| 1778076321 | 3.89° C | 52% | 1011.5 hPa | 0 mm | - | 214 W/m² | - |
| 1778074521 | 3.33° C | 57% | 1011.5 hPa | 0 mm | - | 172 W/m² | - |
| 1778071516 | 2.78° C | 60% | 1011 hPa | 0 mm | - | 156 W/m² | - |
| 1778069716 | 2.22° C | 64% | 1010.9 hPa | 0 mm | - | 72 W/m² | - |
| 1778067916 | 2.22° C | 65% | 1010.7 hPa | 0 mm | - | 42 W/m² | - |
| 1778064917 | 1.67° C | 66% | 1010.4 hPa | 0 mm | - | 9 W/m² | - |
| 1778063717 | 1.67° C | 66% | 1010.2 hPa | 0 mm | - | 2 W/m² | - |
| 1778063117 | 1.67° C | 66% | 1010.2 hPa | 0 mm | - | 1 W/m² | - |
| 1778060118 | 2.22° C | 67% | 1010.2 hPa | 0 mm | - | 0 W/m² | - |
| 1778059518 | 2.22° C | 67% | 1010.2 hPa | 0 mm | - | 0 W/m² | - |
| 1778058918 | 2.22° C | 67% | 1010.1 hPa | 0 mm | - | 0 W/m² | - |
| 1778058318 | 2.22° C | 66% | 1010.1 hPa | 0 mm | - | 0 W/m² | - |
* Rain latest hour (hover to see other rain measurements)
** Current wind speed in m/s (hover to see current wind gust speed)